Dixie, West Virginia
Current Conditions -  °F | °C
As of 10:54 PM on Friday 28 Nov 2014 (Local Time) from KCRW Reporting Station
Scattered Clouds Scattered Clouds  
Wind Chill: 26°   Ceiling: Unl
Heat Index: 26°   Visibility: 10mi
Dew Point: 21°   Wind: 3mph
Humidity: 81%   Direction: 50°NE
Pressure: 30.18"   Gusts: NA
Location:  38.25°N, 81.19°W
Report Text: KCRW 290354Z 05003KT 10SM SCT170 M03/M06 A3018 RMK AO2 SLP230 SCT V BKN T10331061
Loading
Personal Weather Stations






























Interactive Weather Map New forecast layout! Learn more

10-Day Weather Forecast

Advertisements
Track Severe Weather on mobile